sensor_id;sensor_type;location;lat;lon;timestamp;P1;durP1;ratioP1;P2;durP2;ratioP2
12433;SDS011;6281;49.038;8.372;2023-05-27T00:02:17;5.43;;;2.70;;
12433;SDS011;6281;49.038;8.372;2023-05-27T00:04:43;7.23;;;3.00;;
12433;SDS011;6281;49.038;8.372;2023-05-27T00:07:10;5.20;;;2.77;;
12433;SDS011;6281;49.038;8.372;2023-05-27T00:09:37;6.50;;;3.07;;
12433;SDS011;6281;49.038;8.372;2023-05-27T00:12:04;7.17;;;2.83;;
12433;SDS011;6281;49.038;8.372;2023-05-27T00:14:33;6.60;;;2.60;;
12433;SDS011;6281;49.038;8.372;2023-05-27T00:17:00;6.90;;;2.97;;
12433;SDS011;6281;49.038;8.372;2023-05-27T00:19:29;5.07;;;3.03;;
12433;SDS011;6281;49.038;8.372;2023-05-27T00:21:56;8.40;;;2.73;;
12433;SDS011;6281;49.038;8.372;2023-05-27T00:24:23;5.37;;;2.90;;
12433;SDS011;6281;49.038;8.372;2023-05-27T00:26:50;5.17;;;2.63;;
12433;SDS011;6281;49.038;8.372;2023-05-27T00:29:17;6.17;;;3.10;;
12433;SDS011;6281;49.038;8.372;2023-05-27T00:31:46;8.47;;;3.23;;
12433;SDS011;6281;49.038;8.372;2023-05-27T00:34:12;5.87;;;2.73;;
12433;SDS011;6281;49.038;8.372;2023-05-27T00:36:39;6.13;;;2.67;;
12433;SDS011;6281;49.038;8.372;2023-05-27T00:39:06;6.20;;;2.63;;
12433;SDS011;6281;49.038;8.372;2023-05-27T00:41:33;5.77;;;2.83;;
12433;SDS011;6281;49.038;8.372;2023-05-27T00:44:00;9.63;;;2.90;;
12433;SDS011;6281;49.038;8.372;2023-05-27T00:46:28;8.43;;;3.10;;
12433;SDS011;6281;49.038;8.372;2023-05-27T00:48:56;7.10;;;2.80;;
12433;SDS011;6281;49.038;8.372;2023-05-27T00:51:23;7.00;;;3.27;;
12433;SDS011;6281;49.038;8.372;2023-05-27T00:53:50;6.60;;;2.73;;
12433;SDS011;6281;49.038;8.372;2023-05-27T00:56:17;5.60;;;2.93;;
12433;SDS011;6281;49.038;8.372;2023-05-27T00:58:45;9.60;;;3.00;;
12433;SDS011;6281;49.038;8.372;2023-05-27T01:01:12;9.73;;;2.97;;
12433;SDS011;6281;49.038;8.372;2023-05-27T01:03:39;5.17;;;2.37;;
12433;SDS011;6281;49.038;8.372;2023-05-27T01:06:11;7.57;;;2.47;;
12433;SDS011;6281;49.038;8.372;2023-05-27T01:08:48;9.20;;;3.23;;
12433;SDS011;6281;49.038;8.372;2023-05-27T01:11:28;5.87;;;2.50;;
12433;SDS011;6281;49.038;8.372;2023-05-27T01:14:05;7.80;;;2.60;;
12433;SDS011;6281;49.038;8.372;2023-05-27T01:16:36;6.00;;;2.33;;
12433;SDS011;6281;49.038;8.372;2023-05-27T01:19:05;7.80;;;2.93;;
12433;SDS011;6281;49.038;8.372;2023-05-27T01:21:41;7.43;;;2.57;;
12433;SDS011;6281;49.038;8.372;2023-05-27T01:24:12;3.83;;;2.37;;
12433;SDS011;6281;49.038;8.372;2023-05-27T01:26:39;6.67;;;2.77;;
12433;SDS011;6281;49.038;8.372;2023-05-27T01:29:07;6.07;;;2.20;;
12433;SDS011;6281;49.038;8.372;2023-05-27T01:31:35;5.97;;;2.60;;
12433;SDS011;6281;49.038;8.372;2023-05-27T01:34:06;5.10;;;2.40;;
12433;SDS011;6281;49.038;8.372;2023-05-27T01:36:36;7.57;;;2.53;;
12433;SDS011;6281;49.038;8.372;2023-05-27T01:39:06;6.27;;;2.87;;
12433;SDS011;6281;49.038;8.372;2023-05-27T01:41:38;5.33;;;2.70;;
12433;SDS011;6281;49.038;8.372;2023-05-27T01:44:08;10.20;;;2.70;;
12433;SDS011;6281;49.038;8.372;2023-05-27T01:46:36;7.77;;;2.43;;
12433;SDS011;6281;49.038;8.372;2023-05-27T01:49:03;5.30;;;1.97;;
12433;SDS011;6281;49.038;8.372;2023-05-27T01:51:30;8.30;;;2.70;;
12433;SDS011;6281;49.038;8.372;2023-05-27T01:53:57;5.50;;;2.07;;
12433;SDS011;6281;49.038;8.372;2023-05-27T01:56:40;4.30;;;2.17;;
12433;SDS011;6281;49.038;8.372;2023-05-27T01:59:07;5.90;;;2.53;;
12433;SDS011;6281;49.038;8.372;2023-05-27T02:01:33;8.33;;;2.40;;
12433;SDS011;6281;49.038;8.372;2023-05-27T02:04:01;7.87;;;2.53;;
12433;SDS011;6281;49.038;8.372;2023-05-27T02:06:28;3.23;;;2.30;;
12433;SDS011;6281;49.038;8.372;2023-05-27T02:08:57;4.63;;;2.10;;
12433;SDS011;6281;49.038;8.372;2023-05-27T02:11:24;7.23;;;2.27;;
12433;SDS011;6281;49.038;8.372;2023-05-27T02:13:53;5.77;;;2.47;;
12433;SDS011;6281;49.038;8.372;2023-05-27T02:16:21;5.03;;;2.13;;
12433;SDS011;6281;49.038;8.372;2023-05-27T02:18:48;7.07;;;2.30;;
12433;SDS011;6281;49.038;8.372;2023-05-27T02:21:15;7.63;;;2.53;;
12433;SDS011;6281;49.038;8.372;2023-05-27T02:23:42;3.70;;;2.10;;
12433;SDS011;6281;49.038;8.372;2023-05-27T02:26:09;5.20;;;2.67;;
12433;SDS011;6281;49.038;8.372;2023-05-27T02:28:36;2.77;;;2.03;;
12433;SDS011;6281;49.038;8.372;2023-05-27T02:31:04;5.03;;;2.07;;
12433;SDS011;6281;49.038;8.372;2023-05-27T02:33:31;7.53;;;2.63;;
12433;SDS011;6281;49.038;8.372;2023-05-27T02:35:58;5.43;;;2.03;;
12433;SDS011;6281;49.038;8.372;2023-05-27T02:38:24;4.87;;;2.00;;
12433;SDS011;6281;49.038;8.372;2023-05-27T02:40:51;6.03;;;2.30;;
12433;SDS011;6281;49.038;8.372;2023-05-27T02:43:18;5.40;;;2.17;;
12433;SDS011;6281;49.038;8.372;2023-05-27T02:45:45;4.23;;;2.13;;
12433;SDS011;6281;49.038;8.372;2023-05-27T02:48:14;7.43;;;2.37;;
12433;SDS011;6281;49.038;8.372;2023-05-27T02:50:41;7.07;;;2.33;;
12433;SDS011;6281;49.038;8.372;2023-05-27T02:53:07;3.80;;;2.10;;
12433;SDS011;6281;49.038;8.372;2023-05-27T02:55:34;8.37;;;2.50;;
12433;SDS011;6281;49.038;8.372;2023-05-27T03:01:04;4.67;;;2.10;;
12433;SDS011;6281;49.038;8.372;2023-05-27T03:03:33;4.57;;;2.20;;
12433;SDS011;6281;49.038;8.372;2023-05-27T03:06:00;5.97;;;2.10;;
12433;SDS011;6281;49.038;8.372;2023-05-27T03:08:28;6.33;;;1.90;;
12433;SDS011;6281;49.038;8.372;2023-05-27T03:10:56;5.37;;;2.13;;
12433;SDS011;6281;49.038;8.372;2023-05-27T03:13:23;5.17;;;2.17;;
12433;SDS011;6281;49.038;8.372;2023-05-27T03:15:50;6.47;;;2.57;;
12433;SDS011;6281;49.038;8.372;2023-05-27T03:18:19;4.03;;;1.83;;
12433;SDS011;6281;49.038;8.372;2023-05-27T03:20:47;5.30;;;1.93;;
12433;SDS011;6281;49.038;8.372;2023-05-27T03:23:15;3.77;;;2.00;;
12433;SDS011;6281;49.038;8.372;2023-05-27T03:25:42;3.43;;;2.17;;
12433;SDS011;6281;49.038;8.372;2023-05-27T03:28:09;5.80;;;2.13;;
12433;SDS011;6281;49.038;8.372;2023-05-27T03:30:36;5.57;;;2.00;;
12433;SDS011;6281;49.038;8.372;2023-05-27T03:33:03;7.20;;;2.30;;
12433;SDS011;6281;49.038;8.372;2023-05-27T03:35:30;4.40;;;1.90;;
12433;SDS011;6281;49.038;8.372;2023-05-27T03:37:58;5.80;;;1.90;;
12433;SDS011;6281;49.038;8.372;2023-05-27T03:40:25;4.47;;;2.13;;
12433;SDS011;6281;49.038;8.372;2023-05-27T03:42:52;4.23;;;1.87;;
12433;SDS011;6281;49.038;8.372;2023-05-27T03:45:19;3.27;;;2.07;;
12433;SDS011;6281;49.038;8.372;2023-05-27T03:47:46;3.07;;;2.10;;
12433;SDS011;6281;49.038;8.372;2023-05-27T03:50:13;11.50;;;2.43;;
12433;SDS011;6281;49.038;8.372;2023-05-27T03:52:40;4.97;;;1.73;;
12433;SDS011;6281;49.038;8.372;2023-05-27T03:55:08;10.60;;;2.50;;
12433;SDS011;6281;49.038;8.372;2023-05-27T03:57:36;7.17;;;2.47;;
12433;SDS011;6281;49.038;8.372;2023-05-27T04:00:03;5.83;;;1.90;;
12433;SDS011;6281;49.038;8.372;2023-05-27T04:02:33;8.13;;;1.80;;
12433;SDS011;6281;49.038;8.372;2023-05-27T04:04:59;3.50;;;2.07;;
12433;SDS011;6281;49.038;8.372;2023-05-27T04:07:27;5.53;;;2.00;;
12433;SDS011;6281;49.038;8.372;2023-05-27T04:09:53;4.03;;;2.00;;
12433;SDS011;6281;49.038;8.372;2023-05-27T04:12:22;3.57;;;1.70;;
12433;SDS011;6281;49.038;8.372;2023-05-27T04:14:49;5.83;;;2.13;;
12433;SDS011;6281;49.038;8.372;2023-05-27T04:17:16;4.73;;;1.80;;
12433;SDS011;6281;49.038;8.372;2023-05-27T04:19:43;3.13;;;1.93;;
12433;SDS011;6281;49.038;8.372;2023-05-27T04:22:13;6.17;;;1.97;;
12433;SDS011;6281;49.038;8.372;2023-05-27T04:24:40;5.50;;;2.10;;
12433;SDS011;6281;49.038;8.372;2023-05-27T04:27:08;4.77;;;1.67;;
12433;SDS011;6281;49.038;8.372;2023-05-27T04:29:36;5.57;;;2.20;;
12433;SDS011;6281;49.038;8.372;2023-05-27T04:32:03;6.77;;;2.40;;
12433;SDS011;6281;49.038;8.372;2023-05-27T04:34:31;4.93;;;2.10;;
12433;SDS011;6281;49.038;8.372;2023-05-27T04:36:58;4.03;;;2.17;;
12433;SDS011;6281;49.038;8.372;2023-05-27T04:39:26;5.47;;;2.07;;
12433;SDS011;6281;49.038;8.372;2023-05-27T04:41:53;8.77;;;2.73;;
12433;SDS011;6281;49.038;8.372;2023-05-27T04:44:22;6.30;;;2.20;;
12433;SDS011;6281;49.038;8.372;2023-05-27T04:46:50;4.83;;;2.00;;
12433;SDS011;6281;49.038;8.372;2023-05-27T04:49:17;7.83;;;2.30;;
12433;SDS011;6281;49.038;8.372;2023-05-27T04:51:44;3.97;;;1.70;;
12433;SDS011;6281;49.038;8.372;2023-05-27T04:54:12;7.50;;;2.57;;
12433;SDS011;6281;49.038;8.372;2023-05-27T04:59:09;5.40;;;2.20;;
12433;SDS011;6281;49.038;8.372;2023-05-27T05:01:41;10.67;;;2.60;;
12433;SDS011;6281;49.038;8.372;2023-05-27T05:04:36;6.23;;;1.90;;
12433;SDS011;6281;49.038;8.372;2023-05-27T05:07:03;6.50;;;2.27;;
12433;SDS011;6281;49.038;8.372;2023-05-27T05:09:30;6.97;;;2.13;;
12433;SDS011;6281;49.038;8.372;2023-05-27T05:11:57;6.30;;;2.00;;
12433;SDS011;6281;49.038;8.372;2023-05-27T05:14:23;5.40;;;2.03;;
12433;SDS011;6281;49.038;8.372;2023-05-27T05:16:50;4.07;;;2.10;;
12433;SDS011;6281;49.038;8.372;2023-05-27T05:19:17;5.70;;;2.30;;
12433;SDS011;6281;49.038;8.372;2023-05-27T05:21:46;4.13;;;1.90;;
12433;SDS011;6281;49.038;8.372;2023-05-27T05:24:13;5.50;;;2.10;;
12433;SDS011;6281;49.038;8.372;2023-05-27T05:26:39;5.07;;;2.27;;
12433;SDS011;6281;49.038;8.372;2023-05-27T05:29:06;7.17;;;2.13;;
12433;SDS011;6281;49.038;8.372;2023-05-27T05:31:33;3.50;;;1.87;;
12433;SDS011;6281;49.038;8.372;2023-05-27T05:34:00;4.90;;;1.93;;
12433;SDS011;6281;49.038;8.372;2023-05-27T05:36:27;4.73;;;2.40;;
12433;SDS011;6281;49.038;8.372;2023-05-27T05:38:56;6.03;;;2.10;;
12433;SDS011;6281;49.038;8.372;2023-05-27T05:41:23;3.73;;;1.73;;
12433;SDS011;6281;49.038;8.372;2023-05-27T05:43:50;6.10;;;2.27;;
12433;SDS011;6281;49.038;8.372;2023-05-27T05:46:17;8.17;;;1.90;;
12433;SDS011;6281;49.038;8.372;2023-05-27T05:48:44;4.80;;;1.80;;
12433;SDS011;6281;49.038;8.372;2023-05-27T05:51:10;8.00;;;1.90;;
12433;SDS011;6281;49.038;8.372;2023-05-27T05:53:38;11.00;;;2.13;;
12433;SDS011;6281;49.038;8.372;2023-05-27T05:56:06;4.37;;;1.90;;
12433;SDS011;6281;49.038;8.372;2023-05-27T05:58:33;5.87;;;1.50;;
12433;SDS011;6281;49.038;8.372;2023-05-27T06:01:00;3.87;;;2.17;;
12433;SDS011;6281;49.038;8.372;2023-05-27T06:03:28;9.80;;;2.20;;
12433;SDS011;6281;49.038;8.372;2023-05-27T06:05:54;5.73;;;1.40;;
12433;SDS011;6281;49.038;8.372;2023-05-27T06:08:21;5.97;;;1.73;;
12433;SDS011;6281;49.038;8.372;2023-05-27T06:10:48;5.57;;;1.70;;
12433;SDS011;6281;49.038;8.372;2023-05-27T06:13:17;6.93;;;1.97;;
12433;SDS011;6281;49.038;8.372;2023-05-27T06:15:43;5.00;;;1.57;;
12433;SDS011;6281;49.038;8.372;2023-05-27T06:18:10;2.93;;;1.77;;
12433;SDS011;6281;49.038;8.372;2023-05-27T06:20:37;6.27;;;1.60;;
12433;SDS011;6281;49.038;8.372;2023-05-27T06:23:04;4.77;;;1.47;;
12433;SDS011;6281;49.038;8.372;2023-05-27T06:25:31;6.23;;;1.87;;
12433;SDS011;6281;49.038;8.372;2023-05-27T06:27:58;5.67;;;1.80;;
12433;SDS011;6281;49.038;8.372;2023-05-27T06:30:27;5.90;;;2.30;;
12433;SDS011;6281;49.038;8.372;2023-05-27T06:32:54;5.27;;;1.70;;
12433;SDS011;6281;49.038;8.372;2023-05-27T06:35:21;5.87;;;2.00;;
12433;SDS011;6281;49.038;8.372;2023-05-27T06:37:47;6.10;;;1.70;;
12433;SDS011;6281;49.038;8.372;2023-05-27T06:40:14;6.43;;;1.73;;
12433;SDS011;6281;49.038;8.372;2023-05-27T06:42:42;4.43;;;1.77;;
12433;SDS011;6281;49.038;8.372;2023-05-27T06:45:10;3.23;;;1.57;;
12433;SDS011;6281;49.038;8.372;2023-05-27T06:47:39;3.77;;;1.70;;
12433;SDS011;6281;49.038;8.372;2023-05-27T06:50:06;5.17;;;1.70;;
12433;SDS011;6281;49.038;8.372;2023-05-27T06:52:33;7.40;;;2.10;;
12433;SDS011;6281;49.038;8.372;2023-05-27T06:55:00;6.73;;;2.10;;
12433;SDS011;6281;49.038;8.372;2023-05-27T07:00:19;5.73;;;1.90;;
12433;SDS011;6281;49.038;8.372;2023-05-27T07:02:47;8.90;;;2.20;;
12433;SDS011;6281;49.038;8.372;2023-05-27T07:05:14;5.07;;;1.53;;
12433;SDS011;6281;49.038;8.372;2023-05-27T07:07:41;4.37;;;2.00;;
12433;SDS011;6281;49.038;8.372;2023-05-27T07:10:08;4.43;;;2.17;;
12433;SDS011;6281;49.038;8.372;2023-05-27T07:12:35;4.47;;;1.47;;
12433;SDS011;6281;49.038;8.372;2023-05-27T07:15:02;6.73;;;1.70;;
12433;SDS011;6281;49.038;8.372;2023-05-27T07:17:29;6.27;;;1.90;;
12433;SDS011;6281;49.038;8.372;2023-05-27T07:19:58;5.90;;;1.77;;
12433;SDS011;6281;49.038;8.372;2023-05-27T07:22:25;8.83;;;2.00;;
12433;SDS011;6281;49.038;8.372;2023-05-27T07:24:51;8.10;;;2.07;;
12433;SDS011;6281;49.038;8.372;2023-05-27T07:27:18;4.80;;;1.80;;
12433;SDS011;6281;49.038;8.372;2023-05-27T07:29:45;3.00;;;1.53;;
12433;SDS011;6281;49.038;8.372;2023-05-27T07:32:12;5.17;;;1.93;;
12433;SDS011;6281;49.038;8.372;2023-05-27T07:34:39;4.43;;;1.80;;
12433;SDS011;6281;49.038;8.372;2023-05-27T07:37:07;5.60;;;1.63;;
12433;SDS011;6281;49.038;8.372;2023-05-27T07:39:34;6.27;;;1.87;;
12433;SDS011;6281;49.038;8.372;2023-05-27T07:42:01;5.30;;;2.13;;
12433;SDS011;6281;49.038;8.372;2023-05-27T07:44:28;6.20;;;1.67;;
12433;SDS011;6281;49.038;8.372;2023-05-27T07:46:55;7.80;;;2.03;;
12433;SDS011;6281;49.038;8.372;2023-05-27T07:49:22;6.50;;;2.07;;
12433;SDS011;6281;49.038;8.372;2023-05-27T07:51:50;3.37;;;1.97;;
12433;SDS011;6281;49.038;8.372;2023-05-27T07:54:18;3.30;;;1.77;;
12433;SDS011;6281;49.038;8.372;2023-05-27T07:57:00;6.50;;;2.00;;
12433;SDS011;6281;49.038;8.372;2023-05-27T07:59:27;3.87;;;1.67;;
12433;SDS011;6281;49.038;8.372;2023-05-27T08:01:55;3.60;;;1.70;;
12433;SDS011;6281;49.038;8.372;2023-05-27T08:04:22;5.27;;;2.27;;
12433;SDS011;6281;49.038;8.372;2023-05-27T08:06:49;6.67;;;2.20;;
12433;SDS011;6281;49.038;8.372;2023-05-27T08:09:16;4.57;;;2.10;;
12433;SDS011;6281;49.038;8.372;2023-05-27T08:11:44;4.60;;;2.10;;
12433;SDS011;6281;49.038;8.372;2023-05-27T08:14:11;2.83;;;1.80;;
12433;SDS011;6281;49.038;8.372;2023-05-27T08:16:38;4.90;;;1.93;;
12433;SDS011;6281;49.038;8.372;2023-05-27T08:19:05;2.73;;;1.80;;
12433;SDS011;6281;49.038;8.372;2023-05-27T08:21:32;3.53;;;1.90;;
12433;SDS011;6281;49.038;8.372;2023-05-27T08:23:59;4.90;;;2.00;;
12433;SDS011;6281;49.038;8.372;2023-05-27T08:26:28;5.57;;;1.90;;
12433;SDS011;6281;49.038;8.372;2023-05-27T08:28:56;5.30;;;2.00;;
12433;SDS011;6281;49.038;8.372;2023-05-27T08:31:22;6.80;;;1.83;;
12433;SDS011;6281;49.038;8.372;2023-05-27T08:33:49;6.60;;;2.40;;
12433;SDS011;6281;49.038;8.372;2023-05-27T08:36:16;3.90;;;2.10;;
12433;SDS011;6281;49.038;8.372;2023-05-27T08:38:44;7.13;;;2.30;;
12433;SDS011;6281;49.038;8.372;2023-05-27T08:41:11;5.23;;;2.23;;
12433;SDS011;6281;49.038;8.372;2023-05-27T08:43:38;5.23;;;2.30;;
12433;SDS011;6281;49.038;8.372;2023-05-27T08:46:06;6.80;;;2.00;;
12433;SDS011;6281;49.038;8.372;2023-05-27T08:48:34;3.97;;;1.90;;
12433;SDS011;6281;49.038;8.372;2023-05-27T08:51:01;5.97;;;2.10;;
12433;SDS011;6281;49.038;8.372;2023-05-27T08:53:28;5.33;;;2.40;;
12433;SDS011;6281;49.038;8.372;2023-05-27T08:55:58;3.27;;;1.87;;
12433;SDS011;6281;49.038;8.372;2023-05-27T08:58:27;2.77;;;1.93;;
12433;SDS011;6281;49.038;8.372;2023-05-27T09:00:54;7.60;;;2.20;;
12433;SDS011;6281;49.038;8.372;2023-05-27T09:03:23;7.67;;;2.70;;
12433;SDS011;6281;49.038;8.372;2023-05-27T09:05:52;6.40;;;2.40;;
12433;SDS011;6281;49.038;8.372;2023-05-27T09:08:20;6.27;;;2.10;;
12433;SDS011;6281;49.038;8.372;2023-05-27T09:10:48;5.33;;;2.50;;
12433;SDS011;6281;49.038;8.372;2023-05-27T09:13:24;8.43;;;2.40;;
12433;SDS011;6281;49.038;8.372;2023-05-27T09:15:57;4.70;;;1.97;;
12433;SDS011;6281;49.038;8.372;2023-05-27T09:18:26;6.77;;;2.40;;
12433;SDS011;6281;49.038;8.372;2023-05-27T09:20:55;3.83;;;2.17;;
12433;SDS011;6281;49.038;8.372;2023-05-27T09:23:22;6.23;;;2.90;;
12433;SDS011;6281;49.038;8.372;2023-05-27T09:25:49;9.03;;;2.73;;
12433;SDS011;6281;49.038;8.372;2023-05-27T09:28:20;8.80;;;2.80;;
12433;SDS011;6281;49.038;8.372;2023-05-27T09:30:50;4.30;;;2.57;;
12433;SDS011;6281;49.038;8.372;2023-05-27T09:33:22;5.50;;;2.27;;
12433;SDS011;6281;49.038;8.372;2023-05-27T09:35:51;6.20;;;2.53;;
12433;SDS011;6281;49.038;8.372;2023-05-27T09:38:18;4.10;;;2.30;;
12433;SDS011;6281;49.038;8.372;2023-05-27T09:40:45;4.20;;;2.43;;
12433;SDS011;6281;49.038;8.372;2023-05-27T09:43:13;5.30;;;2.13;;
12433;SDS011;6281;49.038;8.372;2023-05-27T09:45:41;5.77;;;2.47;;
12433;SDS011;6281;49.038;8.372;2023-05-27T09:48:09;4.23;;;2.10;;
12433;SDS011;6281;49.038;8.372;2023-05-27T09:50:37;7.77;;;2.43;;
12433;SDS011;6281;49.038;8.372;2023-05-27T09:53:07;5.07;;;2.37;;
12433;SDS011;6281;49.038;8.372;2023-05-27T09:55:35;4.63;;;2.30;;
12433;SDS011;6281;49.038;8.372;2023-05-27T10:01:24;5.40;;;2.30;;
12433;SDS011;6281;49.038;8.372;2023-05-27T10:03:53;4.50;;;2.20;;
12433;SDS011;6281;49.038;8.372;2023-05-27T10:06:21;5.33;;;2.50;;
12433;SDS011;6281;49.038;8.372;2023-05-27T10:08:51;6.70;;;2.47;;
12433;SDS011;6281;49.038;8.372;2023-05-27T10:11:18;7.73;;;3.00;;
12433;SDS011;6281;49.038;8.372;2023-05-27T10:13:46;6.00;;;2.40;;
12433;SDS011;6281;49.038;8.372;2023-05-27T10:16:18;6.20;;;2.47;;
12433;SDS011;6281;49.038;8.372;2023-05-27T10:18:45;5.47;;;2.30;;
12433;SDS011;6281;49.038;8.372;2023-05-27T10:21:18;5.10;;;2.70;;
12433;SDS011;6281;49.038;8.372;2023-05-27T10:23:55;4.03;;;1.97;;
12433;SDS011;6281;49.038;8.372;2023-05-27T10:26:31;4.63;;;2.40;;
12433;SDS011;6281;49.038;8.372;2023-05-27T10:29:04;5.18;;;2.40;;
12433;SDS011;6281;49.038;8.372;2023-05-27T10:31:32;5.43;;;2.40;;
12433;SDS011;6281;49.038;8.372;2023-05-27T10:34:02;6.07;;;2.58;;
12433;SDS011;6281;49.038;8.372;2023-05-27T10:36:31;4.93;;;2.60;;
12433;SDS011;6281;49.038;8.372;2023-05-27T10:39:00;6.82;;;2.60;;
12433;SDS011;6281;49.038;8.372;2023-05-27T10:41:37;5.15;;;2.70;;
12433;SDS011;6281;49.038;8.372;2023-05-27T10:44:05;4.95;;;2.60;;
12433;SDS011;6281;49.038;8.372;2023-05-27T10:46:37;5.45;;;2.47;;
12433;SDS011;6281;49.038;8.372;2023-05-27T10:49:08;7.40;;;2.55;;
12433;SDS011;6281;49.038;8.372;2023-05-27T10:51:36;5.68;;;2.30;;
12433;SDS011;6281;49.038;8.372;2023-05-27T10:54:05;5.30;;;2.50;;
12433;SDS011;6281;49.038;8.372;2023-05-27T10:56:33;5.53;;;2.70;;
12433;SDS011;6281;49.038;8.372;2023-05-27T10:59:00;6.10;;;2.45;;
12433;SDS011;6281;49.038;8.372;2023-05-27T11:01:28;7.35;;;2.95;;
12433;SDS011;6281;49.038;8.372;2023-05-27T11:03:58;5.28;;;2.90;;
12433;SDS011;6281;49.038;8.372;2023-05-27T11:06:25;4.90;;;2.55;;
12433;SDS011;6281;49.038;8.372;2023-05-27T11:08:52;7.07;;;2.90;;
12433;SDS011;6281;49.038;8.372;2023-05-27T11:11:21;6.43;;;3.10;;
12433;SDS011;6281;49.038;8.372;2023-05-27T11:13:48;6.80;;;2.80;;
12433;SDS011;6281;49.038;8.372;2023-05-27T11:16:15;6.32;;;2.83;;
12433;SDS011;6281;49.038;8.372;2023-05-27T11:18:42;4.32;;;2.90;;
12433;SDS011;6281;49.038;8.372;2023-05-27T11:21:11;4.05;;;2.75;;
12433;SDS011;6281;49.038;8.372;2023-05-27T11:23:41;4.03;;;2.90;;
12433;SDS011;6281;49.038;8.372;2023-05-27T11:26:15;5.38;;;2.75;;
12433;SDS011;6281;49.038;8.372;2023-05-27T11:28:48;5.25;;;2.40;;
12433;SDS011;6281;49.038;8.372;2023-05-27T11:31:16;5.28;;;2.95;;
12433;SDS011;6281;49.038;8.372;2023-05-27T11:33:45;6.15;;;3.03;;
12433;SDS011;6281;49.038;8.372;2023-05-27T11:36:13;5.25;;;3.10;;
12433;SDS011;6281;49.038;8.372;2023-05-27T11:38:51;3.55;;;2.40;;
12433;SDS011;6281;49.038;8.372;2023-05-27T11:41:19;7.10;;;3.00;;
12433;SDS011;6281;49.038;8.372;2023-05-27T11:43:49;7.32;;;2.58;;
12433;SDS011;6281;49.038;8.372;2023-05-27T11:46:17;3.58;;;2.42;;
12433;SDS011;6281;49.038;8.372;2023-05-27T11:48:44;4.25;;;2.70;;
12433;SDS011;6281;49.038;8.372;2023-05-27T11:51:11;4.32;;;2.53;;
12433;SDS011;6281;49.038;8.372;2023-05-27T11:53:39;4.05;;;2.53;;
12433;SDS011;6281;49.038;8.372;2023-05-27T11:56:23;5.57;;;3.00;;
12433;SDS011;6281;49.038;8.372;2023-05-27T11:58:52;6.20;;;2.90;;
12433;SDS011;6281;49.038;8.372;2023-05-27T12:01:18;4.78;;;2.88;;
12433;SDS011;6281;49.038;8.372;2023-05-27T12:03:45;4.43;;;2.53;;
12433;SDS011;6281;49.038;8.372;2023-05-27T12:06:12;5.35;;;2.83;;
12433;SDS011;6281;49.038;8.372;2023-05-27T12:08:40;4.40;;;2.80;;
12433;SDS011;6281;49.038;8.372;2023-05-27T12:11:07;5.32;;;3.35;;
12433;SDS011;6281;49.038;8.372;2023-05-27T12:13:34;3.78;;;2.67;;
12433;SDS011;6281;49.038;8.372;2023-05-27T12:16:03;6.32;;;3.40;;
12433;SDS011;6281;49.038;8.372;2023-05-27T12:18:30;6.88;;;2.90;;
12433;SDS011;6281;49.038;8.372;2023-05-27T12:20:56;4.55;;;2.33;;
12433;SDS011;6281;49.038;8.372;2023-05-27T12:23:23;6.85;;;3.00;;
12433;SDS011;6281;49.038;8.372;2023-05-27T12:25:51;3.92;;;2.65;;
12433;SDS011;6281;49.038;8.372;2023-05-27T12:28:17;4.90;;;2.95;;
12433;SDS011;6281;49.038;8.372;2023-05-27T12:30:44;6.20;;;2.55;;
12433;SDS011;6281;49.038;8.372;2023-05-27T12:33:13;4.90;;;2.55;;
12433;SDS011;6281;49.038;8.372;2023-05-27T12:35:40;3.83;;;2.55;;
12433;SDS011;6281;49.038;8.372;2023-05-27T12:38:07;4.90;;;2.95;;
12433;SDS011;6281;49.038;8.372;2023-05-27T12:40:34;4.20;;;2.88;;
12433;SDS011;6281;49.038;8.372;2023-05-27T12:43:01;4.78;;;2.95;;
12433;SDS011;6281;49.038;8.372;2023-05-27T12:45:29;3.20;;;2.38;;
12433;SDS011;6281;49.038;8.372;2023-05-27T12:47:56;5.05;;;3.22;;
12433;SDS011;6281;49.038;8.372;2023-05-27T12:50:25;4.93;;;2.60;;
12433;SDS011;6281;49.038;8.372;2023-05-27T12:52:51;6.00;;;2.58;;
12433;SDS011;6281;49.038;8.372;2023-05-27T12:55:19;4.18;;;2.80;;
12433;SDS011;6281;49.038;8.372;2023-05-27T13:00:22;4.20;;;2.25;;
12433;SDS011;6281;49.038;8.372;2023-05-27T13:02:50;2.67;;;2.13;;
12433;SDS011;6281;49.038;8.372;2023-05-27T13:05:17;3.53;;;2.67;;
12433;SDS011;6281;49.038;8.372;2023-05-27T13:07:53;5.50;;;2.88;;
12433;SDS011;6281;49.038;8.372;2023-05-27T13:10:22;3.72;;;2.42;;
12433;SDS011;6281;49.038;8.372;2023-05-27T13:12:50;5.05;;;2.85;;
12433;SDS011;6281;49.038;8.372;2023-05-27T13:15:17;4.60;;;2.83;;
12433;SDS011;6281;49.038;8.372;2023-05-27T13:17:45;4.35;;;2.83;;
12433;SDS011;6281;49.038;8.372;2023-05-27T13:20:13;4.38;;;2.45;;
12433;SDS011;6281;49.038;8.372;2023-05-27T13:22:41;3.90;;;2.50;;
12433;SDS011;6281;49.038;8.372;2023-05-27T13:25:10;2.60;;;2.28;;
12433;SDS011;6281;49.038;8.372;2023-05-27T13:27:37;4.15;;;2.58;;
12433;SDS011;6281;49.038;8.372;2023-05-27T13:30:04;6.00;;;2.70;;
12433;SDS011;6281;49.038;8.372;2023-05-27T13:32:32;5.05;;;2.70;;
12433;SDS011;6281;49.038;8.372;2023-05-27T13:34:58;4.22;;;2.58;;
12433;SDS011;6281;49.038;8.372;2023-05-27T13:37:25;7.22;;;2.97;;
12433;SDS011;6281;49.038;8.372;2023-05-27T13:39:52;4.88;;;2.70;;
12433;SDS011;6281;49.038;8.372;2023-05-27T13:42:20;4.68;;;2.75;;
12433;SDS011;6281;49.038;8.372;2023-05-27T13:44:47;4.90;;;2.65;;
12433;SDS011;6281;49.038;8.372;2023-05-27T13:47:14;4.03;;;3.22;;
12433;SDS011;6281;49.038;8.372;2023-05-27T13:49:41;4.10;;;2.63;;
12433;SDS011;6281;49.038;8.372;2023-05-27T13:52:08;4.43;;;2.92;;
12433;SDS011;6281;49.038;8.372;2023-05-27T13:54:34;4.72;;;2.55;;
12433;SDS011;6281;49.038;8.372;2023-05-27T13:57:16;3.67;;;2.65;;
12433;SDS011;6281;49.038;8.372;2023-05-27T13:59:44;3.38;;;2.30;;
12433;SDS011;6281;49.038;8.372;2023-05-27T14:02:11;5.82;;;2.72;;
12433;SDS011;6281;49.038;8.372;2023-05-27T14:04:38;3.00;;;2.40;;
12433;SDS011;6281;49.038;8.372;2023-05-27T14:07:04;5.60;;;2.85;;
12433;SDS011;6281;49.038;8.372;2023-05-27T14:09:31;4.95;;;2.97;;
12433;SDS011;6281;49.038;8.372;2023-05-27T14:11:58;4.40;;;2.95;;
12433;SDS011;6281;49.038;8.372;2023-05-27T14:14:27;4.47;;;2.53;;
12433;SDS011;6281;49.038;8.372;2023-05-27T14:16:55;5.72;;;2.97;;
12433;SDS011;6281;49.038;8.372;2023-05-27T14:19:23;5.40;;;2.97;;
12433;SDS011;6281;49.038;8.372;2023-05-27T14:21:49;4.13;;;2.80;;
12433;SDS011;6281;49.038;8.372;2023-05-27T14:24:16;4.45;;;2.83;;
12433;SDS011;6281;49.038;8.372;2023-05-27T14:26:43;3.63;;;2.28;;
12433;SDS011;6281;49.038;8.372;2023-05-27T14:29:10;5.70;;;2.90;;
12433;SDS011;6281;49.038;8.372;2023-05-27T14:31:37;7.47;;;2.83;;
12433;SDS011;6281;49.038;8.372;2023-05-27T14:34:06;5.75;;;3.17;;
12433;SDS011;6281;49.038;8.372;2023-05-27T14:36:33;3.67;;;2.80;;
12433;SDS011;6281;49.038;8.372;2023-05-27T14:39:00;4.20;;;3.08;;
12433;SDS011;6281;49.038;8.372;2023-05-27T14:41:31;4.70;;;2.72;;
12433;SDS011;6281;49.038;8.372;2023-05-27T14:43:58;4.47;;;2.67;;
12433;SDS011;6281;49.038;8.372;2023-05-27T14:46:24;6.78;;;2.88;;
12433;SDS011;6281;49.038;8.372;2023-05-27T14:48:51;4.78;;;2.90;;
12433;SDS011;6281;49.038;8.372;2023-05-27T14:51:20;6.20;;;2.85;;
12433;SDS011;6281;49.038;8.372;2023-05-27T14:53:46;6.25;;;3.63;;
12433;SDS011;6281;49.038;8.372;2023-05-27T14:56:15;3.80;;;2.72;;
12433;SDS011;6281;49.038;8.372;2023-05-27T14:58:42;5.65;;;2.80;;
12433;SDS011;6281;49.038;8.372;2023-05-27T15:01:11;6.03;;;3.25;;
12433;SDS011;6281;49.038;8.372;2023-05-27T15:03:38;3.88;;;2.60;;
12433;SDS011;6281;49.038;8.372;2023-05-27T15:06:05;4.65;;;2.92;;
12433;SDS011;6281;49.038;8.372;2023-05-27T15:08:35;4.90;;;2.63;;
12433;SDS011;6281;49.038;8.372;2023-05-27T15:11:02;6.78;;;2.78;;
12433;SDS011;6281;49.038;8.372;2023-05-27T15:13:29;5.40;;;2.70;;
12433;SDS011;6281;49.038;8.372;2023-05-27T15:15:56;3.65;;;2.55;;
12433;SDS011;6281;49.038;8.372;2023-05-27T15:18:24;6.40;;;2.90;;
12433;SDS011;6281;49.038;8.372;2023-05-27T15:20:51;3.67;;;2.80;;